createdAt,value
2022-12-23T00:00:46.339Z,8
2022-12-23T00:01:46.531Z,7.84
2022-12-23T00:02:46.724Z,8
2022-12-23T00:03:46.679Z,8.08
2022-12-23T00:04:46.787Z,8.08
2022-12-23T00:05:46.884Z,8.08
2022-12-23T00:06:46.987Z,8
2022-12-23T00:07:47.087Z,8.24
2022-12-23T00:08:47.188Z,8.24
2022-12-23T00:09:47.293Z,8.24
2022-12-23T00:10:47.395Z,8.08
2022-12-23T00:11:47.548Z,8.24
2022-12-23T00:12:47.652Z,8.08
2022-12-23T00:13:47.803Z,8.08
2022-12-23T00:14:47.900Z,8.08
2022-12-23T00:15:48.002Z,8
2022-12-23T00:16:48.113Z,8.24
2022-12-23T00:17:48.202Z,8.08
2022-12-23T00:18:48.356Z,8.08
2022-12-23T00:19:48.508Z,8.08
2022-12-23T00:20:48.658Z,8.08
2022-12-23T00:21:48.877Z,8.08
2022-12-23T00:22:48.913Z,8.08
2022-12-23T00:23:49.070Z,8
2022-12-23T00:24:49.211Z,7.92
2022-12-23T00:25:49.315Z,7.92
2022-12-23T00:26:49.420Z,7.92
2022-12-23T00:27:49.516Z,8
2022-12-23T00:28:49.629Z,8.24
2022-12-23T00:29:49.735Z,8.32
2022-12-23T00:30:49.871Z,8.08
2022-12-23T00:31:50.013Z,8.24
2022-12-23T00:32:50.075Z,8.08
2022-12-23T00:33:50.225Z,8.08
2022-12-23T00:34:50.382Z,8
2022-12-23T00:35:50.512Z,8.08
2022-12-23T00:36:50.630Z,8.24
2022-12-23T00:37:50.785Z,8.24
2022-12-23T00:38:50.887Z,8.24
2022-12-23T00:39:54.863Z,8.24
2022-12-23T00:40:51.095Z,8.24
2022-12-23T00:41:51.244Z,8.24
2022-12-23T00:42:51.339Z,8.32
2022-12-23T00:43:51.454Z,8.4
2022-12-23T00:44:51.602Z,8.4
2022-12-23T00:45:51.754Z,8.32
2022-12-23T00:46:51.802Z,8.32
2022-12-23T00:47:51.892Z,8.32
2022-12-23T00:48:51.997Z,8.24
2022-12-23T00:49:52.149Z,8.32
2022-12-23T00:50:52.253Z,8.32
2022-12-23T00:51:52.407Z,8.4
2022-12-23T00:52:52.499Z,8.48
2022-12-23T00:53:52.663Z,8.48
2022-12-23T00:54:52.762Z,8.48
2022-12-23T00:55:52.856Z,8.4
2022-12-23T00:56:53.008Z,8.32
2022-12-23T00:57:53.115Z,8.4
2022-12-23T00:58:53.263Z,8.32
2022-12-23T00:59:53.424Z,8.32
2022-12-23T01:00:53.542Z,8.24
2022-12-23T01:01:53.926Z,8.32
2022-12-23T01:02:53.928Z,8.4
2022-12-23T01:03:53.924Z,8.48
2022-12-23T01:04:54.022Z,8.4
2022-12-23T01:05:54.174Z,8.32
2022-12-23T01:06:54.299Z,8.48
2022-12-23T01:07:54.375Z,8.32
2022-12-23T01:08:54.529Z,8.24
2022-12-23T01:09:54.692Z,8.24
2022-12-23T01:10:54.838Z,8.24
2022-12-23T01:11:54.938Z,8.24
2022-12-23T01:12:55.052Z,8.24
2022-12-23T01:13:55.138Z,8.32
2022-12-23T01:14:55.249Z,8.4
2022-12-23T01:15:55.405Z,8.32
2022-12-23T01:16:55.532Z,8.4
2022-12-23T01:17:55.646Z,8.32
2022-12-23T01:18:55.749Z,8.32
2022-12-23T01:19:55.876Z,8.32
2022-12-23T01:20:55.998Z,8.24
2022-12-23T01:21:56.152Z,8.08
2022-12-23T01:22:56.311Z,8.08
2022-12-23T01:23:56.399Z,8.24
2022-12-23T01:24:56.504Z,8.24
2022-12-23T01:25:56.618Z,8.24
2022-12-23T01:26:56.706Z,8.24
2022-12-23T01:27:56.813Z,8.24
2022-12-23T01:28:56.904Z,8.32
2022-12-23T01:29:57.019Z,8.24
2022-12-23T01:30:57.108Z,8.24
2022-12-23T01:31:57.250Z,8.24
2022-12-23T01:32:57.315Z,8.24
2022-12-23T01:33:57.419Z,8.24
2022-12-23T01:34:57.515Z,8
2022-12-23T01:35:57.632Z,8
2022-12-23T01:36:57.749Z,8
2022-12-23T01:37:57.868Z,8.24
2022-12-23T01:38:58.020Z,8.24
2022-12-23T01:39:58.123Z,8.24
2022-12-23T01:40:58.224Z,8.24
2022-12-23T01:41:58.335Z,8.32
2022-12-23T01:42:58.426Z,8.24
2022-12-23T01:43:58.550Z,8.24
2022-12-23T01:44:58.681Z,8.08
2022-12-23T01:45:58.818Z,8.08
2022-12-23T01:46:58.880Z,8.24
2022-12-23T01:47:59.017Z,8.24
2022-12-23T01:48:59.136Z,8.32
2022-12-23T01:49:59.254Z,8.24
2022-12-23T01:50:59.340Z,8.24
2022-12-23T01:51:59.489Z,8.24
2022-12-23T01:53:04.738Z,8.24
2022-12-23T01:53:59.694Z,8.24
2022-12-23T01:54:59.793Z,8.24
2022-12-23T01:55:59.900Z,8.08
2022-12-23T01:57:00.049Z,8.08
2022-12-23T01:58:00.204Z,8.08
2022-12-23T01:59:00.301Z,8.24
2022-12-23T02:00:00.401Z,8.08
2022-12-23T02:01:00.546Z,8.08
2022-12-23T02:02:00.783Z,8.08
2022-12-23T02:03:00.789Z,8.24
2022-12-23T02:04:00.863Z,8.24
2022-12-23T02:05:00.963Z,8.08
2022-12-23T02:06:01.115Z,8
2022-12-23T02:07:01.265Z,8.08
2022-12-23T02:08:01.359Z,8.08
2022-12-23T02:09:01.464Z,8.24
2022-12-23T02:10:01.594Z,8.24
2022-12-23T02:11:01.722Z,8.24
2022-12-23T02:12:01.818Z,8.24
2022-12-23T02:13:01.977Z,8.24
2022-12-23T02:14:02.121Z,8.32
2022-12-23T02:15:02.236Z,8.32
2022-12-23T02:16:02.371Z,8
2022-12-23T02:17:02.553Z,8.08
2022-12-23T02:18:02.637Z,8.08
2022-12-23T02:19:02.785Z,8.08
2022-12-23T02:20:02.946Z,8
2022-12-23T02:21:03.030Z,8
2022-12-23T02:22:03.151Z,8.08
2022-12-23T02:23:03.283Z,8.24
2022-12-23T02:24:03.395Z,8.08
2022-12-23T02:25:03.534Z,8.24
2022-12-23T02:26:03.649Z,8.24
2022-12-23T02:27:03.792Z,8.32
2022-12-23T02:28:03.941Z,8.08
2022-12-23T02:29:04.041Z,8.08
2022-12-23T02:30:04.145Z,8.08
2022-12-23T02:31:04.291Z,7.92
2022-12-23T02:32:04.374Z,8
2022-12-23T02:33:04.503Z,8
2022-12-23T02:34:04.648Z,8.08
2022-12-23T02:35:04.755Z,8.24
2022-12-23T02:36:04.856Z,8.24
2022-12-23T02:37:04.958Z,8
2022-12-23T02:38:05.059Z,8.24
2022-12-23T02:39:05.210Z,7.92
2022-12-23T02:40:05.330Z,7.92
2022-12-23T02:41:05.461Z,8
2022-12-23T02:42:05.566Z,8.08
2022-12-23T02:43:05.675Z,8
2022-12-23T02:44:05.768Z,8.08
2022-12-23T02:45:05.865Z,8.08
2022-12-23T02:46:06.062Z,8
2022-12-23T02:47:06.126Z,8.08
2022-12-23T02:48:06.275Z,8.32
2022-12-23T02:49:06.372Z,8.32
2022-12-23T02:50:06.469Z,8.08
2022-12-23T02:51:06.575Z,8.24
2022-12-23T02:52:06.724Z,8.24
2022-12-23T02:53:06.827Z,8.08
2022-12-23T02:54:06.933Z,8.08
2022-12-23T02:55:07.046Z,8.08
2022-12-23T02:56:07.196Z,8.24
2022-12-23T02:57:07.331Z,8.24
2022-12-23T02:58:07.489Z,8
2022-12-23T02:59:07.647Z,8.08
2022-12-23T03:00:07.737Z,8.24
2022-12-23T03:01:07.852Z,8.24
2022-12-23T03:02:08.076Z,8.32
2022-12-23T03:03:08.222Z,8.24
2022-12-23T03:04:08.200Z,8.24
2022-12-23T03:05:08.297Z,8
2022-12-23T03:06:08.400Z,8
2022-12-23T03:07:10.467Z,8.08
2022-12-23T03:08:08.647Z,8.08
2022-12-23T03:09:08.752Z,8.32
2022-12-23T03:10:08.911Z,8.24
2022-12-23T03:11:09.056Z,8.24
2022-12-23T03:12:09.166Z,8.08
2022-12-23T03:13:09.308Z,8.24
2022-12-23T03:14:09.455Z,8
2022-12-23T03:15:09.563Z,8
2022-12-23T03:16:09.693Z,8
2022-12-23T03:17:09.810Z,8.08
2022-12-23T03:18:09.912Z,8.24
2022-12-23T03:19:10.025Z,8.32
2022-12-23T03:20:10.187Z,8.24
2022-12-23T03:21:10.270Z,8.32
2022-12-23T03:22:10.380Z,8.24
2022-12-23T03:23:10.467Z,8.32
2022-12-23T03:24:10.573Z,8.32
2022-12-23T03:25:10.727Z,8.32
2022-12-23T03:26:10.825Z,8
2022-12-23T03:27:10.977Z,8.24
2022-12-23T03:28:11.080Z,8
2022-12-23T03:29:11.180Z,8.08
2022-12-23T03:30:11.282Z,8
2022-12-23T03:31:11.471Z,8.08
2022-12-23T03:32:11.552Z,8.24
2022-12-23T03:33:11.650Z,8.32
2022-12-23T03:34:11.737Z,8.32
2022-12-23T03:35:11.837Z,8.08
2022-12-23T03:36:11.950Z,8.08
2022-12-23T03:37:12.054Z,8.24
2022-12-23T03:38:12.151Z,8.24
2022-12-23T03:39:12.245Z,8.08
2022-12-23T03:40:12.399Z,8.08
2022-12-23T03:41:12.551Z,8.24
2022-12-23T03:42:12.649Z,8.24
2022-12-23T03:43:12.753Z,8.24
2022-12-23T03:44:12.899Z,8.24
2022-12-23T03:45:37.904Z,8.32
2022-12-23T03:46:13.208Z,8.4
2022-12-23T03:47:13.304Z,8.24
2022-12-23T03:48:13.405Z,8.24
2022-12-23T03:49:13.512Z,8.24
2022-12-23T03:50:13.656Z,8.08
2022-12-23T03:51:13.758Z,8.24
2022-12-23T03:52:20.745Z,8.24
2022-12-23T03:53:14.015Z,8.32
2022-12-23T03:54:14.179Z,8.32
2022-12-23T03:55:14.272Z,8.24
2022-12-23T03:56:14.383Z,8.08
2022-12-23T03:57:14.522Z,8.24
2022-12-23T03:58:14.669Z,8.24
2022-12-23T03:59:14.820Z,8.24
2022-12-23T04:00:14.919Z,8.08
2022-12-23T04:01:17.578Z,8.24
2022-12-23T04:02:15.281Z,8.08
2022-12-23T04:03:15.280Z,8.24
2022-12-23T04:04:15.430Z,8.24
2022-12-23T04:05:15.538Z,8.24
2022-12-23T04:06:15.639Z,8.08
2022-12-23T04:07:15.786Z,8.4
2022-12-23T04:08:15.890Z,8.32
2022-12-23T04:09:21.661Z,8.24
2022-12-23T04:10:16.095Z,8.24
2022-12-23T04:11:16.193Z,8.08
2022-12-23T04:12:16.290Z,8.08
2022-12-23T04:13:16.398Z,8
2022-12-23T04:14:16.494Z,8
2022-12-23T04:15:16.643Z,8
2022-12-23T04:16:16.880Z,8.08
2022-12-23T04:17:16.904Z,8
2022-12-23T04:18:17.006Z,8.24
2022-12-23T04:19:17.099Z,8.24
2022-12-23T04:20:17.202Z,8
2022-12-23T04:21:17.353Z,8
2022-12-23T04:22:17.467Z,8
2022-12-23T04:23:17.618Z,7.92
2022-12-23T04:24:17.709Z,7.92
2022-12-23T04:25:17.820Z,7.84
2022-12-23T04:26:17.922Z,7.84
2022-12-23T04:27:18.067Z,7.92
2022-12-23T04:28:18.169Z,7.92
2022-12-23T04:29:18.318Z,7.84
2022-12-23T04:30:18.435Z,8
2022-12-23T04:31:18.650Z,8
2022-12-23T04:32:18.683Z,7.92
2022-12-23T04:33:18.779Z,7.84
2022-12-23T04:34:18.922Z,7.84
2022-12-23T04:35:19.074Z,7.84
2022-12-23T04:36:19.229Z,7.92
2022-12-23T04:37:19.380Z,8
2022-12-23T04:38:19.475Z,8
2022-12-23T04:39:19.584Z,8
2022-12-23T04:40:19.686Z,8.08
2022-12-23T04:41:19.835Z,8.08
2022-12-23T04:42:19.937Z,8
2022-12-23T04:43:20.086Z,8.08
2022-12-23T04:44:20.193Z,8
2022-12-23T04:45:20.294Z,8
2022-12-23T04:46:20.516Z,8
2022-12-23T04:47:20.548Z,8
2022-12-23T04:48:20.696Z,8
2022-12-23T04:49:20.804Z,8
2022-12-23T04:50:20.947Z,8.08
2022-12-23T04:51:21.101Z,8.24
2022-12-23T04:52:21.208Z,8.24
2022-12-23T04:53:21.352Z,8.24
2022-12-23T04:54:21.469Z,8.24
2022-12-23T04:55:21.556Z,8.24
2022-12-23T04:56:21.705Z,8.24
2022-12-23T04:57:21.808Z,8.24
2022-12-23T04:58:21.937Z,8.24
2022-12-23T04:59:22.057Z,8.24
2022-12-23T05:00:22.175Z,8.24
2022-12-23T05:01:22.359Z,8.24
2022-12-23T05:02:22.511Z,8.24
2022-12-23T05:03:22.665Z,8.32
2022-12-23T05:04:22.739Z,8.08
2022-12-23T05:05:22.873Z,8.08
2022-12-23T05:06:22.981Z,8.08
2022-12-23T05:07:23.094Z,8
2022-12-23T05:08:23.184Z,8.08
2022-12-23T05:09:23.276Z,8
2022-12-23T05:10:23.377Z,8
2022-12-23T05:11:23.484Z,8
2022-12-23T05:12:23.626Z,8
2022-12-23T05:13:23.780Z,8.08
2022-12-23T05:14:23.882Z,8.24
2022-12-23T05:15:24.034Z,8.08
2022-12-23T05:16:24.173Z,8.24
2022-12-23T05:17:24.244Z,8.24
2022-12-23T05:18:24.400Z,8.24
2022-12-23T05:19:24.490Z,8.24
2022-12-23T05:20:24.591Z,8.24
2022-12-23T05:21:24.691Z,8.08
2022-12-23T05:22:24.790Z,8.24
2022-12-23T05:23:24.896Z,8.32
2022-12-23T05:24:24.995Z,8.4
2022-12-23T05:25:25.146Z,8.32
2022-12-23T05:26:25.268Z,8.32
2022-12-23T05:27:25.357Z,8.32
2022-12-23T05:28:25.506Z,8.32
2022-12-23T05:29:25.615Z,8.32
2022-12-23T05:30:25.754Z,8.24
2022-12-23T05:31:25.899Z,8.24
2022-12-23T05:32:25.964Z,8.08
2022-12-23T05:33:26.140Z,8.24
2022-12-23T05:34:26.269Z,8.08
2022-12-23T05:35:26.378Z,8.08
2022-12-23T05:36:26.463Z,8.24
2022-12-23T05:37:26.615Z,8.32
2022-12-23T05:38:26.766Z,8.08
2022-12-23T05:39:26.927Z,8.24
2022-12-23T05:40:28.107Z,8.24
2022-12-23T05:41:27.219Z,8.24
2022-12-23T05:42:27.379Z,8.24
2022-12-23T05:43:27.525Z,8.08
2022-12-23T05:44:27.651Z,8.08
2022-12-23T05:45:27.773Z,8.24
2022-12-23T05:46:27.861Z,8.24
2022-12-23T05:47:27.978Z,8.32
2022-12-23T05:48:28.085Z,8.24
2022-12-23T05:49:28.210Z,8.08
2022-12-23T05:50:28.287Z,8.24
2022-12-23T05:51:28.437Z,8.24
2022-12-23T05:52:28.544Z,8.32
2022-12-23T05:53:28.696Z,8.24
2022-12-23T05:54:28.790Z,8.24
2022-12-23T05:55:28.944Z,8.24
2022-12-23T05:56:29.065Z,8.32
2022-12-23T05:57:29.146Z,8.24
2022-12-23T05:58:29.241Z,8.32
2022-12-23T05:59:31.462Z,8.24
2022-12-23T06:00:29.449Z,8.4
2022-12-23T06:01:29.578Z,8.4
2022-12-23T06:02:29.831Z,8.32
2022-12-23T06:03:29.905Z,8.32
2022-12-23T06:04:29.898Z,8.24
2022-12-23T06:05:29.960Z,8.24
2022-12-23T06:06:30.064Z,8.24
2022-12-23T06:07:30.212Z,8.32
2022-12-23T06:08:30.319Z,8.32
2022-12-23T06:09:30.419Z,8.32
2022-12-23T06:10:30.568Z,8.24
2022-12-23T06:11:30.664Z,8.4
2022-12-23T06:12:30.816Z,8.24
2022-12-23T06:13:30.923Z,8.32
2022-12-23T06:14:31.093Z,8.32
2022-12-23T06:15:31.191Z,8.32
2022-12-23T06:16:31.470Z,8.24
2022-12-23T06:17:31.477Z,8.24
2022-12-23T06:18:31.532Z,8.24
2022-12-23T06:19:31.635Z,8.24
2022-12-23T06:20:31.784Z,8.4
2022-12-23T06:21:31.888Z,8.4
2022-12-23T06:22:31.982Z,8.4
2022-12-23T06:23:32.092Z,8.4
2022-12-23T06:24:32.240Z,8.32
2022-12-23T06:25:32.345Z,8.24
2022-12-23T06:26:32.440Z,8.24
2022-12-23T06:27:32.614Z,8.24
2022-12-23T06:28:32.771Z,8.24
2022-12-23T06:29:32.850Z,8.32
2022-12-23T06:30:32.950Z,8.32
2022-12-23T06:31:33.122Z,8.4
2022-12-23T06:32:38.065Z,8.32
2022-12-23T06:33:33.355Z,8.32
2022-12-23T06:34:33.444Z,8.32
2022-12-23T06:35:33.627Z,8.4
2022-12-23T06:36:33.755Z,8.32
2022-12-23T06:37:33.861Z,8.24
2022-12-23T06:38:33.959Z,8.24
2022-12-23T06:39:34.111Z,8.32
2022-12-23T06:40:34.220Z,8.24
2022-12-23T06:41:34.324Z,8.24
2022-12-23T06:42:34.468Z,8.4
2022-12-23T06:43:34.559Z,8.4
2022-12-23T06:44:34.671Z,8.24
2022-12-23T06:45:34.828Z,8.24
2022-12-23T06:46:34.920Z,8.32
2022-12-23T06:47:35.018Z,8.4
2022-12-23T06:48:35.125Z,8.24
2022-12-23T06:49:35.220Z,8.32
2022-12-23T06:50:35.378Z,8.24
2022-12-23T06:51:35.570Z,8.24
2022-12-23T06:52:35.684Z,8.24
2022-12-23T06:53:35.776Z,8.24
2022-12-23T06:54:35.886Z,8.24
2022-12-23T06:55:35.984Z,8.08
2022-12-23T06:56:36.082Z,8.08
2022-12-23T06:57:36.242Z,8.24
2022-12-23T06:58:36.394Z,8.32
2022-12-23T06:59:36.493Z,8.24
2022-12-23T07:00:36.589Z,8.24
2022-12-23T07:01:36.826Z,8.24
2022-12-23T07:02:36.931Z,8.24
2022-12-23T07:03:37.057Z,8.24
2022-12-23T07:04:37.097Z,8.24
2022-12-23T07:05:37.784Z,8.32
2022-12-23T07:06:37.293Z,8.32
2022-12-23T07:07:37.447Z,8.32
2022-12-23T07:08:37.557Z,8.32
2022-12-23T07:09:37.651Z,8.24
2022-12-23T07:10:37.747Z,8.24
2022-12-23T07:11:37.849Z,8.24
2022-12-23T07:12:37.956Z,8.08
2022-12-23T07:13:38.102Z,8.24
2022-12-23T07:14:38.274Z,8.24
2022-12-23T07:15:38.417Z,8.24
2022-12-23T07:16:38.586Z,8.4
2022-12-23T07:17:38.672Z,8.32
2022-12-23T07:18:38.815Z,8.24
2022-12-23T07:19:38.913Z,8.48
2022-12-23T07:20:39.066Z,8.4
2022-12-23T07:21:39.170Z,8.32
2022-12-23T07:22:39.318Z,8.24
2022-12-23T07:23:39.424Z,8.08
2022-12-23T07:24:39.573Z,8.24
2022-12-23T07:25:39.675Z,8.32
2022-12-23T07:26:39.781Z,8.24
2022-12-23T07:27:39.879Z,8.32
2022-12-23T07:28:39.982Z,8.24
2022-12-23T07:29:40.146Z,8.32
2022-12-23T07:30:40.228Z,8.32
2022-12-23T07:31:41.177Z,8.48
2022-12-23T07:32:40.489Z,8.4
2022-12-23T07:33:40.637Z,8.32
2022-12-23T07:34:40.739Z,8.24
2022-12-23T07:35:40.890Z,8.24
2022-12-23T07:36:41.042Z,8.24
2022-12-23T07:37:41.199Z,8.24
2022-12-23T07:38:41.351Z,8.24
2022-12-23T07:39:41.442Z,8.08
2022-12-23T07:40:41.597Z,8.08
2022-12-23T07:41:41.713Z,8.24
2022-12-23T07:42:45.518Z,8.08
2022-12-23T07:43:42.003Z,8.08
2022-12-23T07:44:42.115Z,8.24
2022-12-23T07:45:42.272Z,8.08
2022-12-23T07:46:42.321Z,8.24
2022-12-23T07:47:42.412Z,8.24
2022-12-23T07:48:42.555Z,8.24
2022-12-23T07:49:42.710Z,8.24
2022-12-23T07:50:42.806Z,8.24
2022-12-23T07:51:42.916Z,8.4
2022-12-23T07:52:43.062Z,8.4
2022-12-23T07:53:43.167Z,8.48
2022-12-23T07:54:43.269Z,8.32
2022-12-23T07:55:43.376Z,8.32
2022-12-23T07:56:43.522Z,8.24
2022-12-23T07:57:43.619Z,8.4
2022-12-23T07:58:43.734Z,8.4
2022-12-23T07:59:43.836Z,8.4
2022-12-23T08:00:43.982Z,8.32
2022-12-23T08:01:44.313Z,8.4
2022-12-23T08:02:44.441Z,8.4
2022-12-23T08:03:44.368Z,8.4
2022-12-23T08:04:46.187Z,8.48
2022-12-23T08:05:44.560Z,8.4
2022-12-23T08:06:44.684Z,8.4
2022-12-23T08:07:44.785Z,8.32
2022-12-23T08:08:44.902Z,8.32
2022-12-23T08:09:44.987Z,8.32
2022-12-23T08:10:48.408Z,8.32
2022-12-23T08:11:45.290Z,8.32
2022-12-23T08:12:45.390Z,8.4
2022-12-23T08:13:45.499Z,8.4
2022-12-23T08:14:45.599Z,8.4
2022-12-23T08:15:45.739Z,8.32
2022-12-23T08:16:45.886Z,8.32
2022-12-23T08:17:45.944Z,8.32
2022-12-23T08:18:46.049Z,8.32
2022-12-23T08:19:46.197Z,8.4
2022-12-23T08:20:46.303Z,8.4
2022-12-23T08:21:46.414Z,8.48
2022-12-23T08:22:46.509Z,8.4
2022-12-23T08:23:46.609Z,8.4
2022-12-23T08:24:46.787Z,8.48
2022-12-23T08:25:46.916Z,8.4
2022-12-23T08:26:47.013Z,8.4
2022-12-23T08:27:47.108Z,8.4
2022-12-23T08:28:47.268Z,8.32
2022-12-23T08:29:47.387Z,8.32
2022-12-23T08:30:47.503Z,8.32
2022-12-23T08:31:47.566Z,8.32
2022-12-23T08:32:47.672Z,8.32
2022-12-23T08:33:47.775Z,8.32
2022-12-23T08:34:47.873Z,8.48
2022-12-23T08:35:47.972Z,8.4
2022-12-23T08:36:48.078Z,8.4
2022-12-23T08:37:48.179Z,8.639999
2022-12-23T08:38:48.331Z,8.48
2022-12-23T08:39:48.430Z,8.4
2022-12-23T08:40:48.535Z,8.48
2022-12-23T08:41:48.635Z,8.48
2022-12-23T08:42:48.942Z,8.48
2022-12-23T08:43:49.000Z,8.48
2022-12-23T08:44:49.098Z,8.48
2022-12-23T08:45:49.227Z,8.48
2022-12-23T08:46:49.398Z,8.639999
2022-12-23T08:47:49.441Z,8.639999
2022-12-23T08:48:49.987Z,8.639999
2022-12-23T08:49:49.641Z,8.72
2022-12-23T08:50:49.794Z,8.72
2022-12-23T08:51:49.904Z,8.72
2022-12-23T08:52:49.998Z,8.72
2022-12-23T08:53:52.484Z,8.8
2022-12-23T08:54:50.252Z,8.72
2022-12-23T08:55:50.352Z,8.72
2022-12-23T08:56:50.516Z,8.8
2022-12-23T08:57:50.650Z,8.88
2022-12-23T08:58:50.752Z,8.88
2022-12-23T08:59:50.910Z,8.8
2022-12-23T09:00:51.005Z,8.8
2022-12-23T09:01:51.190Z,8.8
2022-12-23T09:02:51.352Z,8.8
2022-12-23T09:03:51.485Z,8.8
2022-12-23T09:04:51.518Z,8.88
2022-12-23T09:05:51.664Z,8.88
2022-12-23T09:06:51.764Z,8.88
2022-12-23T09:07:51.871Z,8.88
2022-12-23T09:08:51.990Z,9.04
2022-12-23T09:09:52.075Z,9.04
2022-12-23T09:10:52.225Z,9.28
2022-12-23T09:11:52.380Z,9.12
2022-12-23T09:12:52.529Z,9.12
2022-12-23T09:13:52.633Z,9.04
2022-12-23T09:14:52.779Z,9.12
2022-12-23T09:15:52.902Z,9.04
2022-12-23T09:16:53.040Z,9.12
2022-12-23T09:17:53.189Z,9.12
2022-12-23T09:18:53.292Z,9.12
2022-12-23T09:19:53.559Z,9.12
2022-12-23T09:20:53.586Z,9.12
2022-12-23T09:21:53.745Z,9.12
2022-12-23T09:22:53.892Z,9.28
2022-12-23T09:23:54.018Z,9.2
2022-12-23T09:24:54.146Z,9.2
2022-12-23T09:25:54.294Z,9.2
2022-12-23T09:26:54.453Z,9.28
2022-12-23T09:27:54.607Z,9.2
2022-12-23T09:28:54.750Z,9.2
2022-12-23T09:29:54.905Z,9.2
2022-12-23T09:30:55.067Z,9.36
2022-12-23T09:31:55.171Z,9.52
2022-12-23T09:32:55.314Z,9.36
2022-12-23T09:33:55.415Z,9.52
2022-12-23T09:34:55.562Z,9.52
2022-12-23T09:35:55.663Z,9.599999
2022-12-23T09:36:55.784Z,9.679999
2022-12-23T09:37:55.871Z,9.599999
2022-12-23T09:38:56.015Z,9.599999
2022-12-23T09:39:56.167Z,9.679999
2022-12-23T09:40:56.271Z,9.679999
2022-12-23T09:41:56.423Z,9.679999
2022-12-23T09:42:56.574Z,9.92
2022-12-23T09:43:56.681Z,9.92
2022-12-23T09:44:56.823Z,9.92
2022-12-23T09:45:56.994Z,9.84
2022-12-23T09:46:57.228Z,9.84
2022-12-23T09:47:57.185Z,9.92
2022-12-23T09:48:57.331Z,9.84
2022-12-23T09:49:57.429Z,9.679999
2022-12-23T09:50:57.589Z,9.599999
2022-12-23T09:51:57.690Z,9.84
2022-12-23T09:52:57.784Z,9.84
2022-12-23T09:53:57.887Z,9.679999
2022-12-23T09:54:58.046Z,9.679999
2022-12-23T09:55:58.196Z,9.679999
2022-12-23T09:56:58.318Z,9.599999
2022-12-23T09:57:58.447Z,9.679999
2022-12-23T09:58:58.548Z,9.84
2022-12-23T09:59:58.701Z,9.679999
2022-12-23T10:00:58.800Z,9.679999
2022-12-23T10:01:58.964Z,9.84
2022-12-23T10:02:59.302Z,9.84
2022-12-23T10:03:59.219Z,9.84
2022-12-23T10:04:59.201Z,10
2022-12-23T10:05:59.361Z,9.92
2022-12-23T10:07:02.948Z,9.92
2022-12-23T10:07:59.572Z,9.92
2022-12-23T10:08:59.662Z,10
2022-12-23T10:09:59.765Z,10
2022-12-23T10:10:59.915Z,10.08
2022-12-23T10:12:00.089Z,10
2022-12-23T10:13:00.216Z,10
2022-12-23T10:14:00.318Z,10.08
2022-12-23T10:15:00.496Z,10
2022-12-23T10:16:00.655Z,10
2022-12-23T10:17:00.720Z,10
2022-12-23T10:18:00.825Z,10.24
2022-12-23T10:19:00.975Z,10.32
2022-12-23T10:20:01.147Z,10.24
2022-12-23T10:21:01.234Z,10.08
2022-12-23T10:22:01.384Z,10
2022-12-23T10:23:01.482Z,10
2022-12-23T10:24:01.585Z,10
2022-12-23T10:25:01.701Z,10.08
2022-12-23T10:26:01.831Z,9.92
2022-12-23T10:27:01.987Z,9.92
2022-12-23T10:28:02.144Z,9.84
2022-12-23T10:29:02.243Z,9.92
2022-12-23T10:30:14.120Z,10
2022-12-23T10:31:30.828Z,10.08
2022-12-23T10:32:02.740Z,10
2022-12-23T10:33:02.844Z,9.92
2022-12-23T10:34:02.953Z,10
2022-12-23T10:35:03.046Z,10
2022-12-23T10:36:03.277Z,10
2022-12-23T10:37:03.406Z,10
2022-12-23T10:38:03.513Z,10
2022-12-23T10:39:03.653Z,10
2022-12-23T10:40:03.752Z,10
2022-12-23T10:41:07.027Z,10.08
2022-12-23T10:42:04.012Z,10.24
2022-12-23T10:43:04.159Z,10.08
2022-12-23T10:44:04.264Z,10.08
2022-12-23T10:45:04.421Z,10
2022-12-23T10:46:04.524Z,9.92
2022-12-23T10:47:04.649Z,10
2022-12-23T10:48:07.395Z,10.08
2022-12-23T10:49:04.885Z,10.08
2022-12-23T10:50:04.973Z,10.08
2022-12-23T10:51:05.071Z,10.08
2022-12-23T10:52:05.236Z,10
2022-12-23T10:53:05.324Z,10.08
2022-12-23T10:54:05.482Z,10
2022-12-23T10:55:05.581Z,10.24
2022-12-23T10:56:05.682Z,10.32
2022-12-23T10:57:05.781Z,10.08
2022-12-23T10:58:05.885Z,10.08
2022-12-23T10:59:06.033Z,10.08
2022-12-23T11:00:06.133Z,10.08
2022-12-23T11:01:11.985Z,10.08
2022-12-23T11:02:06.648Z,10.24
2022-12-23T11:03:06.695Z,10.24
2022-12-23T11:04:06.693Z,10.32
2022-12-23T11:05:06.802Z,10.32
2022-12-23T11:06:06.955Z,10.24
2022-12-23T11:07:41.873Z,10.08
2022-12-23T11:08:07.199Z,10.24
2022-12-23T11:09:07.349Z,10.24
2022-12-23T11:10:07.497Z,10.08
2022-12-23T11:11:07.551Z,10
2022-12-23T11:12:07.657Z,10
2022-12-23T11:13:07.811Z,10.08
2022-12-23T11:14:07.907Z,10.08
2022-12-23T11:15:08.011Z,10.08
2022-12-23T11:16:08.256Z,10.08
2022-12-23T11:17:08.205Z,10.08
2022-12-23T11:18:08.316Z,10.24
2022-12-23T11:19:08.467Z,10.24
2022-12-23T11:20:08.584Z,10.08
2022-12-23T11:21:08.716Z,10.32
2022-12-23T11:22:08.822Z,10.24
2022-12-23T11:23:08.970Z,10.24
2022-12-23T11:24:09.136Z,10.24
2022-12-23T11:25:09.222Z,10.24
2022-12-23T11:26:09.339Z,10.32
2022-12-23T11:27:09.429Z,10.32
2022-12-23T11:28:09.579Z,10.24
2022-12-23T11:29:09.683Z,10.24
2022-12-23T11:30:09.832Z,10.08
2022-12-23T11:31:10.040Z,10.08
2022-12-23T11:32:10.151Z,10.24
2022-12-23T11:33:10.231Z,10.24
2022-12-23T11:34:10.346Z,10.32
2022-12-23T11:35:10.467Z,10.32
2022-12-23T11:36:10.587Z,10.24
2022-12-23T11:37:10.734Z,10.32
2022-12-23T11:38:10.888Z,10.08
2022-12-23T11:39:10.990Z,10.24
2022-12-23T11:40:11.088Z,10.24
2022-12-23T11:41:11.191Z,10.08
2022-12-23T11:42:11.355Z,10.24
2022-12-23T11:43:11.450Z,10.08
2022-12-23T11:44:11.598Z,10
2022-12-23T11:45:11.701Z,9.92
2022-12-23T11:46:11.904Z,10
2022-12-23T11:47:11.905Z,10
2022-12-23T11:48:12.056Z,10
2022-12-23T11:49:12.161Z,10.08
2022-12-23T11:50:12.267Z,10
2022-12-23T11:51:12.408Z,10.08
2022-12-23T11:52:12.515Z,10.08
2022-12-23T11:53:12.666Z,10.08
2022-12-23T11:54:12.775Z,10.08
2022-12-23T11:55:12.885Z,10.24
2022-12-23T11:56:13.012Z,10.08
2022-12-23T11:57:13.181Z,10
2022-12-23T11:58:13.267Z,9.92
2022-12-23T11:59:13.371Z,9.92
2022-12-23T12:00:13.519Z,10.08
2022-12-23T12:01:13.668Z,10
2022-12-23T12:02:13.811Z,10
2022-12-23T12:03:13.908Z,10
2022-12-23T12:04:14.028Z,10
2022-12-23T12:05:14.126Z,10
2022-12-23T12:06:14.235Z,9.92
2022-12-23T12:07:14.402Z,9.92
2022-12-23T12:08:14.485Z,9.92
2022-12-23T12:09:14.597Z,10
2022-12-23T12:10:14.698Z,9.92
2022-12-23T12:11:14.874Z,9.92
2022-12-23T12:12:14.997Z,9.84
2022-12-23T12:13:15.091Z,9.92
2022-12-23T12:14:15.191Z,9.84
2022-12-23T12:15:15.293Z,10
2022-12-23T12:16:15.504Z,9.92
2022-12-23T12:17:15.782Z,10
2022-12-23T12:18:15.753Z,10.08
2022-12-23T12:19:15.861Z,10.08
2022-12-23T12:20:15.948Z,10
2022-12-23T12:21:16.056Z,10
2022-12-23T12:22:16.201Z,10
2022-12-23T12:23:16.365Z,10
2022-12-23T12:24:18.618Z,10
2022-12-23T12:25:16.609Z,10.08
2022-12-23T12:26:16.756Z,10.24
2022-12-23T12:27:16.915Z,10.32
2022-12-23T12:28:17.012Z,10.32
2022-12-23T12:29:17.161Z,10.4
2022-12-23T12:30:17.264Z,10.32
2022-12-23T12:31:17.471Z,10.24
2022-12-23T12:32:17.514Z,10.24
2022-12-23T12:33:17.671Z,10.24
2022-12-23T12:34:17.828Z,10.24
2022-12-23T12:35:17.971Z,10.32
2022-12-23T12:36:18.143Z,10.48
2022-12-23T12:37:18.221Z,10.639999
2022-12-23T12:38:18.378Z,10.4
2022-12-23T12:39:18.528Z,10.639999
2022-12-23T12:40:18.638Z,10.639999
2022-12-23T12:41:18.776Z,10.4
2022-12-23T12:42:18.878Z,10.48
2022-12-23T12:43:18.987Z,10.48
2022-12-23T12:44:19.147Z,10.32
2022-12-23T12:45:19.246Z,10.32
2022-12-23T12:46:19.453Z,10.24
2022-12-23T12:47:36.692Z,10.08
2022-12-23T12:48:19.603Z,10.24
2022-12-23T12:49:19.707Z,10.24
2022-12-23T12:50:19.845Z,10.08
2022-12-23T12:51:19.942Z,10.32
2022-12-23T12:52:20.105Z,10.32
2022-12-23T12:53:20.257Z,10.08
2022-12-23T12:54:20.351Z,10
2022-12-23T12:55:20.455Z,10
2022-12-23T12:56:20.603Z,10
2022-12-23T12:57:20.702Z,10
2022-12-23T12:58:20.805Z,10
2022-12-23T12:59:20.908Z,10
2022-12-23T13:00:21.010Z,10
2022-12-23T13:01:21.173Z,9.92
2022-12-23T13:02:21.226Z,10.08
2022-12-23T13:03:21.313Z,10
2022-12-23T13:04:21.409Z,9.92
2022-12-23T13:05:21.564Z,10.08
2022-12-23T13:06:21.661Z,10
2022-12-23T13:07:21.818Z,10
2022-12-23T13:08:21.915Z,10
2022-12-23T13:09:22.073Z,10
2022-12-23T13:10:22.170Z,10
2022-12-23T13:11:28.095Z,10
2022-12-23T13:12:22.372Z,9.92
2022-12-23T13:13:22.478Z,9.92
2022-12-23T13:14:22.631Z,10
2022-12-23T13:15:22.752Z,10.08
2022-12-23T13:16:22.941Z,10
2022-12-23T13:17:22.982Z,10.08
2022-12-23T13:18:23.080Z,10
2022-12-23T13:19:23.180Z,9.92
2022-12-23T13:20:23.291Z,9.92
2022-12-23T13:21:23.442Z,9.84
2022-12-23T13:22:23.540Z,10
2022-12-23T13:23:42.685Z,10
2022-12-23T13:24:23.787Z,10
2022-12-23T13:25:23.938Z,9.92